sensor_id;sensor_type;location;lat;lon;timestamp;pressure;altitude;pressure_sealevel;temperature;humidity
31911;BME280;18457;52.432;16.914;2022-07-22T00:01:37;100562.96;;;25.19;55.94
31911;BME280;18457;52.432;16.914;2022-07-22T00:04:08;100560.81;;;25.25;55.92
31911;BME280;18457;52.432;16.914;2022-07-22T00:06:40;100560.77;;;25.03;56.78
31911;BME280;18457;52.432;16.914;2022-07-22T00:09:11;100570.19;;;25.19;56.37
31911;BME280;18457;52.432;16.914;2022-07-22T00:11:43;100570.78;;;25.23;56.37
31911;BME280;18457;52.432;16.914;2022-07-22T00:14:16;100568.02;;;25.16;56.58
31911;BME280;18457;52.432;16.914;2022-07-22T00:16:48;100569.54;;;25.13;56.63
31911;BME280;18457;52.432;16.914;2022-07-22T00:19:19;100566.24;;;25.15;56.71
31911;BME280;18457;52.432;16.914;2022-07-22T00:21:50;100562.77;;;25.10;57.08
31911;BME280;18457;52.432;16.914;2022-07-22T00:24:22;100568.02;;;24.96;57.82
31911;BME280;18457;52.432;16.914;2022-07-22T00:26:55;100571.76;;;24.88;58.29
31911;BME280;18457;52.432;16.914;2022-07-22T00:29:27;100581.59;;;24.79;58.75
31911;BME280;18457;52.432;16.914;2022-07-22T00:31:59;100587.27;;;24.97;58.57
31911;BME280;18457;52.432;16.914;2022-07-22T00:34:34;100589.07;;;24.91;59.01
31911;BME280;18457;52.432;16.914;2022-07-22T00:37:06;100595.35;;;24.82;59.58
31911;BME280;18457;52.432;16.914;2022-07-22T00:39:38;100593.33;;;24.82;59.61
31911;BME280;18457;52.432;16.914;2022-07-22T00:42:10;100600.46;;;24.74;60.09
31911;BME280;18457;52.432;16.914;2022-07-22T00:44:43;100596.52;;;24.79;59.91
31911;BME280;18457;52.432;16.914;2022-07-22T00:47:16;100598.11;;;24.87;59.73
31911;BME280;18457;52.432;16.914;2022-07-22T00:49:48;100603.08;;;24.67;60.40
31911;BME280;18457;52.432;16.914;2022-07-22T00:52:20;100603.48;;;24.66;60.57
31911;BME280;18457;52.432;16.914;2022-07-22T00:54:56;100608.89;;;24.68;60.67
31911;BME280;18457;52.432;16.914;2022-07-22T00:57:27;100610.02;;;24.53;61.13
31911;BME280;18457;52.432;16.914;2022-07-22T00:59:59;100604.61;;;24.43;61.65
31911;BME280;18457;52.432;16.914;2022-07-22T01:02:32;100597.36;;;24.41;61.83
31911;BME280;18457;52.432;16.914;2022-07-22T01:05:04;100586.84;;;24.52;61.39
31911;BME280;18457;52.432;16.914;2022-07-22T01:07:37;100588.80;;;24.51;61.69
31911;BME280;18457;52.432;16.914;2022-07-22T01:10:11;100579.01;;;24.62;61.73
31911;BME280;18457;52.432;16.914;2022-07-22T01:12:43;100580.85;;;24.44;63.60
31911;BME280;18457;52.432;16.914;2022-07-22T01:15:15;100571.05;;;24.44;64.05
31911;BME280;18457;52.432;16.914;2022-07-22T01:17:47;100573.62;;;24.16;64.85
31911;BME280;18457;52.432;16.914;2022-07-22T01:20:20;100574.13;;;24.31;64.51
31911;BME280;18457;52.432;16.914;2022-07-22T01:22:51;100570.35;;;24.27;64.89
31911;BME280;18457;52.432;16.914;2022-07-22T01:25:24;100566.25;;;24.21;65.85
31911;BME280;18457;52.432;16.914;2022-07-22T01:27:56;100566.00;;;23.81;67.30
31911;BME280;18457;52.432;16.914;2022-07-22T01:30:28;100568.58;;;24.03;67.06
31911;BME280;18457;52.432;16.914;2022-07-22T01:33:00;100571.12;;;24.15;66.10
31911;BME280;18457;52.432;16.914;2022-07-22T01:35:32;100571.08;;;24.25;65.52
31911;BME280;18457;52.432;16.914;2022-07-22T01:38:03;100570.68;;;24.28;65.44
31911;BME280;18457;52.432;16.914;2022-07-22T01:40:35;100566.64;;;24.18;65.52
31911;BME280;18457;52.432;16.914;2022-07-22T01:43:08;100557.72;;;23.95;65.97
31911;BME280;18457;52.432;16.914;2022-07-22T01:45:40;100562.88;;;23.83;66.52
31911;BME280;18457;52.432;16.914;2022-07-22T01:48:12;100562.20;;;23.94;66.51
31911;BME280;18457;52.432;16.914;2022-07-22T01:50:45;100561.80;;;24.12;65.73
31911;BME280;18457;52.432;16.914;2022-07-22T01:53:17;100554.86;;;24.03;66.13
31911;BME280;18457;52.432;16.914;2022-07-22T01:55:50;100560.91;;;23.89;66.45
31911;BME280;18457;52.432;16.914;2022-07-22T01:58:22;100557.17;;;24.00;66.07
31911;BME280;18457;52.432;16.914;2022-07-22T02:00:54;100551.13;;;23.96;66.21
31911;BME280;18457;52.432;16.914;2022-07-22T02:03:27;100552.06;;;23.89;66.55
31911;BME280;18457;52.432;16.914;2022-07-22T02:05:59;100549.97;;;23.78;67.16
31911;BME280;18457;52.432;16.914;2022-07-22T02:08:31;100551.38;;;23.74;67.37
31911;BME280;18457;52.432;16.914;2022-07-22T02:11:15;100555.41;;;23.82;67.13
31911;BME280;18457;52.432;16.914;2022-07-22T02:13:56;100554.45;;;23.99;66.69
31911;BME280;18457;52.432;16.914;2022-07-22T02:16:28;100544.60;;;24.07;66.11
31911;BME280;18457;52.432;16.914;2022-07-22T02:19:00;100548.60;;;24.03;66.47
31911;BME280;18457;52.432;16.914;2022-07-22T02:21:32;100551.06;;;24.02;66.43
31911;BME280;18457;52.432;16.914;2022-07-22T02:24:05;100560.48;;;24.12;66.42
31911;BME280;18457;52.432;16.914;2022-07-22T02:26:38;100574.27;;;24.17;66.21
31911;BME280;18457;52.432;16.914;2022-07-22T02:29:11;100587.02;;;24.20;66.11
31911;BME280;18457;52.432;16.914;2022-07-22T02:31:42;100598.95;;;24.16;66.27
31911;BME280;18457;52.432;16.914;2022-07-22T02:34:15;100598.77;;;24.23;65.70
31911;BME280;18457;52.432;16.914;2022-07-22T02:36:47;100582.46;;;23.97;66.94
31911;BME280;18457;52.432;16.914;2022-07-22T02:39:18;100590.59;;;23.90;67.49
31911;BME280;18457;52.432;16.914;2022-07-22T02:41:50;100606.67;;;23.87;67.49
31911;BME280;18457;52.432;16.914;2022-07-22T02:44:22;100630.09;;;24.09;66.69
31911;BME280;18457;52.432;16.914;2022-07-22T02:46:54;100651.52;;;24.07;66.66
31911;BME280;18457;52.432;16.914;2022-07-22T02:49:31;100645.19;;;24.03;67.11
31911;BME280;18457;52.432;16.914;2022-07-22T02:52:03;100650.81;;;23.67;69.22
31911;BME280;18457;52.432;16.914;2022-07-22T02:54:34;100640.55;;;23.44;70.54
31911;BME280;18457;52.432;16.914;2022-07-22T02:57:06;100632.84;;;23.39;70.90
31911;BME280;18457;52.432;16.914;2022-07-22T02:59:38;100615.54;;;23.48;70.97
31911;BME280;18457;52.432;16.914;2022-07-22T03:02:10;100601.83;;;23.47;71.30
31911;BME280;18457;52.432;16.914;2022-07-22T03:04:42;100592.28;;;23.49;72.84
31911;BME280;18457;52.432;16.914;2022-07-22T03:07:14;100593.75;;;23.53;73.85
31911;BME280;18457;52.432;16.914;2022-07-22T03:09:46;100580.36;;;23.40;74.70
31911;BME280;18457;52.432;16.914;2022-07-22T03:12:19;100572.21;;;23.51;74.83
31911;BME280;18457;52.432;16.914;2022-07-22T03:14:51;100571.33;;;23.55;75.49
31911;BME280;18457;52.432;16.914;2022-07-22T03:17:22;100565.67;;;23.31;77.24
31911;BME280;18457;52.432;16.914;2022-07-22T03:19:54;100555.63;;;22.92;80.11
31911;BME280;18457;52.432;16.914;2022-07-22T03:22:26;100551.39;;;23.10;79.13
31911;BME280;18457;52.432;16.914;2022-07-22T03:24:58;100567.18;;;23.31;77.36
31911;BME280;18457;52.432;16.914;2022-07-22T03:27:30;100582.55;;;23.45;76.31
31911;BME280;18457;52.432;16.914;2022-07-22T03:30:03;100598.55;;;23.51;75.58
31911;BME280;18457;52.432;16.914;2022-07-22T03:32:37;100597.39;;;23.16;77.32
31911;BME280;18457;52.432;16.914;2022-07-22T03:35:09;100597.63;;;23.06;79.10
31911;BME280;18457;52.432;16.914;2022-07-22T03:37:44;100608.88;;;23.20;78.51
31911;BME280;18457;52.432;16.914;2022-07-22T03:40:16;100610.93;;;23.30;78.06
31911;BME280;18457;52.432;16.914;2022-07-22T03:42:48;100607.59;;;23.38;77.32
31911;BME280;18457;52.432;16.914;2022-07-22T03:45:19;100618.14;;;23.43;76.83
31911;BME280;18457;52.432;16.914;2022-07-22T03:47:51;100610.98;;;23.45;76.55
31911;BME280;18457;52.432;16.914;2022-07-22T03:50:25;100609.27;;;23.38;76.26
31911;BME280;18457;52.432;16.914;2022-07-22T03:52:57;100601.18;;;23.17;77.52
31911;BME280;18457;52.432;16.914;2022-07-22T03:55:31;100589.65;;;22.96;78.77
31911;BME280;18457;52.432;16.914;2022-07-22T03:58:03;100581.02;;;22.91;79.28
31911;BME280;18457;52.432;16.914;2022-07-22T04:00:36;100577.34;;;22.91;80.04
31911;BME280;18457;52.432;16.914;2022-07-22T04:03:10;100579.85;;;22.89;80.67
31911;BME280;18457;52.432;16.914;2022-07-22T04:06:05;100585.63;;;23.21;78.78
31911;BME280;18457;52.432;16.914;2022-07-22T04:08:45;100600.20;;;23.28;78.81
31911;BME280;18457;52.432;16.914;2022-07-22T04:11:17;100601.77;;;23.32;79.59
31911;BME280;18457;52.432;16.914;2022-07-22T04:13:49;100605.25;;;23.35;79.24
31911;BME280;18457;52.432;16.914;2022-07-22T04:16:20;100604.70;;;23.38;78.81
31911;BME280;18457;52.432;16.914;2022-07-22T04:18:59;100601.10;;;23.34;78.26
31911;BME280;18457;52.432;16.914;2022-07-22T04:22:03;100603.98;;;23.29;78.77
31911;BME280;18457;52.432;16.914;2022-07-22T04:24:35;100612.83;;;23.37;78.54
31911;BME280;18457;52.432;16.914;2022-07-22T04:27:06;100614.23;;;23.38;78.31
31911;BME280;18457;52.432;16.914;2022-07-22T04:29:41;100617.02;;;23.48;78.16
31911;BME280;18457;52.432;16.914;2022-07-22T04:32:12;100619.63;;;23.53;78.01
31911;BME280;18457;52.432;16.914;2022-07-22T04:34:44;100616.94;;;23.49;78.09
31911;BME280;18457;52.432;16.914;2022-07-22T04:37:16;100621.94;;;23.21;79.40
31911;BME280;18457;52.432;16.914;2022-07-22T04:39:48;100630.40;;;23.09;80.50
31911;BME280;18457;52.432;16.914;2022-07-22T04:42:20;100629.09;;;22.88;82.00
31911;BME280;18457;52.432;16.914;2022-07-22T04:44:52;100625.00;;;22.91;82.06
31911;BME280;18457;52.432;16.914;2022-07-22T04:47:24;100621.49;;;23.04;81.20
31911;BME280;18457;52.432;16.914;2022-07-22T04:49:56;100621.98;;;23.23;79.88
31911;BME280;18457;52.432;16.914;2022-07-22T04:52:28;100627.06;;;23.34;78.71
31911;BME280;18457;52.432;16.914;2022-07-22T04:55:00;100626.41;;;23.25;79.93
31911;BME280;18457;52.432;16.914;2022-07-22T04:57:32;100627.73;;;23.17;80.28
31911;BME280;18457;52.432;16.914;2022-07-22T05:00:06;100633.63;;;23.30;78.76
31911;BME280;18457;52.432;16.914;2022-07-22T05:02:46;100640.81;;;23.30;77.97
31911;BME280;18457;52.432;16.914;2022-07-22T05:05:18;100649.27;;;23.31;77.72
31911;BME280;18457;52.432;16.914;2022-07-22T05:07:50;100647.48;;;23.35;77.13
31911;BME280;18457;52.432;16.914;2022-07-22T05:10:22;100646.48;;;23.31;77.02
31911;BME280;18457;52.432;16.914;2022-07-22T05:12:54;100643.37;;;23.38;76.73
31911;BME280;18457;52.432;16.914;2022-07-22T05:15:26;100639.09;;;23.49;76.09
31911;BME280;18457;52.432;16.914;2022-07-22T05:17:58;100638.79;;;23.51;75.83
31911;BME280;18457;52.432;16.914;2022-07-22T05:20:35;100642.53;;;23.57;75.55
31911;BME280;18457;52.432;16.914;2022-07-22T05:23:08;100644.58;;;23.55;75.42
31911;BME280;18457;52.432;16.914;2022-07-22T05:25:39;100647.71;;;23.24;76.58
31911;BME280;18457;52.432;16.914;2022-07-22T05:28:10;100652.75;;;23.44;75.82
31911;BME280;18457;52.432;16.914;2022-07-22T05:30:45;100658.11;;;23.53;75.39
31911;BME280;18457;52.432;16.914;2022-07-22T05:33:15;100655.59;;;23.65;74.90
31911;BME280;18457;52.432;16.914;2022-07-22T05:36:06;100660.16;;;23.66;74.96
31911;BME280;18457;52.432;16.914;2022-07-22T05:38:44;100658.20;;;23.40;76.86
31911;BME280;18457;52.432;16.914;2022-07-22T05:41:17;100653.81;;;23.39;76.99
31911;BME280;18457;52.432;16.914;2022-07-22T05:43:49;100646.90;;;23.61;75.08
31911;BME280;18457;52.432;16.914;2022-07-22T05:46:21;100647.31;;;23.70;73.92
31911;BME280;18457;52.432;16.914;2022-07-22T05:48:53;100650.41;;;23.55;74.27
31911;BME280;18457;52.432;16.914;2022-07-22T05:51:27;100647.77;;;23.69;74.41
31911;BME280;18457;52.432;16.914;2022-07-22T05:53:59;100645.90;;;23.83;73.95
31911;BME280;18457;52.432;16.914;2022-07-22T05:56:33;100643.59;;;23.63;74.30
31911;BME280;18457;52.432;16.914;2022-07-22T05:59:05;100641.54;;;23.61;74.20
31911;BME280;18457;52.432;16.914;2022-07-22T06:01:37;100631.64;;;23.48;74.97
31911;BME280;18457;52.432;16.914;2022-07-22T06:04:16;100624.73;;;23.73;73.54
31911;BME280;18457;52.432;16.914;2022-07-22T06:06:47;100618.48;;;23.92;72.50
31911;BME280;18457;52.432;16.914;2022-07-22T06:09:19;100615.34;;;23.99;72.02
31911;BME280;18457;52.432;16.914;2022-07-22T06:11:50;100616.17;;;24.06;71.78
31911;BME280;18457;52.432;16.914;2022-07-22T06:14:22;100615.10;;;24.05;71.99
31911;BME280;18457;52.432;16.914;2022-07-22T06:16:54;100620.45;;;23.81;72.97
31911;BME280;18457;52.432;16.914;2022-07-22T06:19:27;100615.72;;;23.97;72.43
31911;BME280;18457;52.432;16.914;2022-07-22T06:21:59;100610.31;;;24.02;72.71
31911;BME280;18457;52.432;16.914;2022-07-22T06:24:31;100605.62;;;23.86;73.00
31911;BME280;18457;52.432;16.914;2022-07-22T06:27:03;100604.80;;;23.85;73.15
31911;BME280;18457;52.432;16.914;2022-07-22T06:29:35;100605.66;;;23.81;73.12
31911;BME280;18457;52.432;16.914;2022-07-22T06:32:08;100607.36;;;23.71;73.43
31911;BME280;18457;52.432;16.914;2022-07-22T06:34:39;100605.73;;;23.71;73.51
31911;BME280;18457;52.432;16.914;2022-07-22T06:37:11;100604.41;;;23.76;72.97
31911;BME280;18457;52.432;16.914;2022-07-22T06:39:43;100607.11;;;23.79;73.02
31911;BME280;18457;52.432;16.914;2022-07-22T06:42:33;100603.08;;;23.93;72.54
31911;BME280;18457;52.432;16.914;2022-07-22T06:45:24;100611.59;;;23.78;72.81
31911;BME280;18457;52.432;16.914;2022-07-22T06:48:34;100607.73;;;23.90;73.00
31911;BME280;18457;52.432;16.914;2022-07-22T06:51:06;100602.82;;;24.06;72.28
31911;BME280;18457;52.432;16.914;2022-07-22T06:53:39;100599.11;;;24.23;71.44
31911;BME280;18457;52.432;16.914;2022-07-22T06:56:12;100598.65;;;24.31;71.25
31911;BME280;18457;52.432;16.914;2022-07-22T06:58:46;100598.50;;;24.24;71.72
31911;BME280;18457;52.432;16.914;2022-07-22T07:01:18;100597.41;;;24.17;72.45
31911;BME280;18457;52.432;16.914;2022-07-22T07:04:03;100594.29;;;24.28;72.85
31911;BME280;18457;52.432;16.914;2022-07-22T07:06:36;100598.77;;;24.20;72.03
31911;BME280;18457;52.432;16.914;2022-07-22T07:09:15;100597.55;;;24.29;70.06
31911;BME280;18457;52.432;16.914;2022-07-22T07:11:55;100598.59;;;24.51;70.12
31911;BME280;18457;52.432;16.914;2022-07-22T07:14:50;100606.52;;;24.37;70.37
31911;BME280;18457;52.432;16.914;2022-07-22T07:17:42;100605.56;;;24.37;69.32
31911;BME280;18457;52.432;16.914;2022-07-22T07:20:14;100609.86;;;24.39;69.28
31911;BME280;18457;52.432;16.914;2022-07-22T07:22:46;100611.86;;;24.54;69.15
31911;BME280;18457;52.432;16.914;2022-07-22T07:25:18;100610.51;;;24.73;68.78
31911;BME280;18457;52.432;16.914;2022-07-22T07:27:55;100613.06;;;24.69;69.12
31911;BME280;18457;52.432;16.914;2022-07-22T07:30:50;100618.30;;;24.63;68.33
31911;BME280;18457;52.432;16.914;2022-07-22T07:33:23;100621.36;;;24.62;68.04
31911;BME280;18457;52.432;16.914;2022-07-22T07:35:55;100619.33;;;24.69;68.39
31911;BME280;18457;52.432;16.914;2022-07-22T07:38:38;100614.27;;;24.70;68.05
31911;BME280;18457;52.432;16.914;2022-07-22T07:41:14;100623.95;;;24.81;68.26
31911;BME280;18457;52.432;16.914;2022-07-22T07:43:47;100620.60;;;24.88;67.09
31911;BME280;18457;52.432;16.914;2022-07-22T07:46:19;100617.55;;;24.93;67.05
31911;BME280;18457;52.432;16.914;2022-07-22T07:48:51;100624.56;;;25.00;66.72
31911;BME280;18457;52.432;16.914;2022-07-22T07:51:24;100622.33;;;24.90;66.04
31911;BME280;18457;52.432;16.914;2022-07-22T07:53:56;100620.85;;;24.94;66.14
31911;BME280;18457;52.432;16.914;2022-07-22T07:56:28;100622.83;;;24.99;66.37
31911;BME280;18457;52.432;16.914;2022-07-22T07:59:01;100617.15;;;25.08;66.39
31911;BME280;18457;52.432;16.914;2022-07-22T08:01:53;100620.59;;;25.18;66.15
31911;BME280;18457;52.432;16.914;2022-07-22T08:04:30;100621.78;;;25.21;65.24
31911;BME280;18457;52.432;16.914;2022-07-22T08:07:14;100623.05;;;25.22;65.79
31911;BME280;18457;52.432;16.914;2022-07-22T08:09:48;100622.33;;;25.26;65.94
31911;BME280;18457;52.432;16.914;2022-07-22T08:12:59;100623.23;;;25.35;65.51
31911;BME280;18457;52.432;16.914;2022-07-22T08:15:57;100625.41;;;25.27;65.70
31911;BME280;18457;52.432;16.914;2022-07-22T08:18:30;100624.21;;;25.39;65.11
31911;BME280;18457;52.432;16.914;2022-07-22T08:21:02;100622.86;;;25.51;64.86
31911;BME280;18457;52.432;16.914;2022-07-22T08:23:42;100619.99;;;25.52;64.92
31911;BME280;18457;52.432;16.914;2022-07-22T08:26:15;100624.66;;;25.58;64.31
31911;BME280;18457;52.432;16.914;2022-07-22T08:28:47;100625.42;;;25.58;64.27
31911;BME280;18457;52.432;16.914;2022-07-22T08:31:19;100623.19;;;25.71;64.20
31911;BME280;18457;52.432;16.914;2022-07-22T08:33:52;100622.31;;;25.86;63.93
31911;BME280;18457;52.432;16.914;2022-07-22T08:36:29;100625.67;;;25.92;62.94
31911;BME280;18457;52.432;16.914;2022-07-22T08:39:02;100624.55;;;25.90;62.25
31911;BME280;18457;52.432;16.914;2022-07-22T08:41:37;100623.48;;;26.12;62.06
31911;BME280;18457;52.432;16.914;2022-07-22T08:44:11;100626.41;;;26.27;61.95
31911;BME280;18457;52.432;16.914;2022-07-22T08:46:41;100628.77;;;26.36;61.25
31911;BME280;18457;52.432;16.914;2022-07-22T08:49:24;100627.33;;;26.31;60.34
31911;BME280;18457;52.432;16.914;2022-07-22T08:52:15;100628.61;;;26.49;59.51
31911;BME280;18457;52.432;16.914;2022-07-22T08:54:51;100626.70;;;26.66;59.19
31911;BME280;18457;52.432;16.914;2022-07-22T08:57:23;100621.13;;;26.79;58.77
31911;BME280;18457;52.432;16.914;2022-07-22T08:59:57;100630.77;;;26.92;58.35
31911;BME280;18457;52.432;16.914;2022-07-22T09:02:37;100631.38;;;26.94;57.53
31911;BME280;18457;52.432;16.914;2022-07-22T09:05:11;100627.16;;;27.07;57.29
31911;BME280;18457;52.432;16.914;2022-07-22T09:08:06;100632.89;;;26.95;57.42
31911;BME280;18457;52.432;16.914;2022-07-22T09:10:59;100628.82;;;26.87;56.84
31911;BME280;18457;52.432;16.914;2022-07-22T09:14:06;100632.80;;;26.98;56.07
31911;BME280;18457;52.432;16.914;2022-07-22T09:17:05;100626.80;;;27.07;55.49
31911;BME280;18457;52.432;16.914;2022-07-22T09:19:42;100626.95;;;27.14;55.38
31911;BME280;18457;52.432;16.914;2022-07-22T09:22:38;100625.63;;;27.26;54.64
31911;BME280;18457;52.432;16.914;2022-07-22T09:25:26;100623.95;;;27.31;53.78
31911;BME280;18457;52.432;16.914;2022-07-22T09:28:19;100623.06;;;27.36;53.36
31911;BME280;18457;52.432;16.914;2022-07-22T09:31:24;100628.00;;;27.47;52.78
31911;BME280;18457;52.432;16.914;2022-07-22T09:34:34;100624.30;;;27.59;52.68
31911;BME280;18457;52.432;16.914;2022-07-22T09:37:17;100626.07;;;27.60;53.27
31911;BME280;18457;52.432;16.914;2022-07-22T09:39:49;100627.00;;;27.68;52.86
31911;BME280;18457;52.432;16.914;2022-07-22T09:42:23;100614.57;;;27.72;52.58
31911;BME280;18457;52.432;16.914;2022-07-22T09:44:55;100623.20;;;27.67;51.83
31911;BME280;18457;52.432;16.914;2022-07-22T09:47:42;100622.10;;;27.79;51.68
31911;BME280;18457;52.432;16.914;2022-07-22T09:50:33;100620.98;;;27.65;52.35
31911;BME280;18457;52.432;16.914;2022-07-22T09:53:20;100614.07;;;27.70;52.65
31911;BME280;18457;52.432;16.914;2022-07-22T09:56:07;100615.59;;;27.93;51.01
31911;BME280;18457;52.432;16.914;2022-07-22T09:58:40;100614.67;;;27.97;48.55
31911;BME280;18457;52.432;16.914;2022-07-22T10:01:35;100614.16;;;28.14;48.36
31911;BME280;18457;52.432;16.914;2022-07-22T10:04:08;100614.34;;;28.04;48.77
31911;BME280;18457;52.432;16.914;2022-07-22T10:06:43;100618.13;;;27.76;49.90
31911;BME280;18457;52.432;16.914;2022-07-22T10:09:19;100620.85;;;27.48;51.24
31911;BME280;18457;52.432;16.914;2022-07-22T10:11:53;100625.23;;;27.41;52.16
31911;BME280;18457;52.432;16.914;2022-07-22T10:14:28;100621.33;;;27.43;51.80
31911;BME280;18457;52.432;16.914;2022-07-22T10:17:02;100621.98;;;27.48;51.91
31911;BME280;18457;52.432;16.914;2022-07-22T10:19:38;100631.69;;;27.47;52.20
31911;BME280;18457;52.432;16.914;2022-07-22T10:25:47;100616.70;;;28.07;49.76
31911;BME280;18457;52.432;16.914;2022-07-22T10:28:27;100614.77;;;28.31;48.89
31911;BME280;18457;52.432;16.914;2022-07-22T10:31:19;100609.96;;;28.37;48.93
31911;BME280;18457;52.432;16.914;2022-07-22T10:33:54;100608.55;;;28.28;49.21
31911;BME280;18457;52.432;16.914;2022-07-22T10:36:35;100614.17;;;28.43;48.72
31911;BME280;18457;52.432;16.914;2022-07-22T10:39:10;100605.20;;;28.17;48.81
31911;BME280;18457;52.432;16.914;2022-07-22T10:41:43;100613.48;;;27.92;49.09
31911;BME280;18457;52.432;16.914;2022-07-22T10:47:55;100616.60;;;28.45;47.03
31911;BME280;18457;52.432;16.914;2022-07-22T10:51:09;100607.73;;;28.46;46.73
31911;BME280;18457;52.432;16.914;2022-07-22T10:53:44;100614.77;;;28.53;46.39
31911;BME280;18457;52.432;16.914;2022-07-22T10:56:27;100617.33;;;28.57;46.26
31911;BME280;18457;52.432;16.914;2022-07-22T10:59:10;100617.12;;;28.81;45.78
31911;BME280;18457;52.432;16.914;2022-07-22T11:01:45;100616.86;;;29.06;45.58
31911;BME280;18457;52.432;16.914;2022-07-22T11:04:19;100610.17;;;29.02;45.44
31911;BME280;18457;52.432;16.914;2022-07-22T11:06:54;100611.88;;;29.11;44.72
31911;BME280;18457;52.432;16.914;2022-07-22T11:09:34;100609.65;;;29.26;44.11
31911;BME280;18457;52.432;16.914;2022-07-22T11:12:13;100609.55;;;29.38;44.09
31911;BME280;18457;52.432;16.914;2022-07-22T11:14:46;100610.39;;;29.37;44.55
31911;BME280;18457;52.432;16.914;2022-07-22T11:17:18;100606.69;;;29.35;44.59
31911;BME280;18457;52.432;16.914;2022-07-22T11:19:55;100608.40;;;29.35;44.41
31911;BME280;18457;52.432;16.914;2022-07-22T11:22:27;100612.65;;;29.61;43.92
31911;BME280;18457;52.432;16.914;2022-07-22T11:25:02;100608.50;;;29.78;43.51
31911;BME280;18457;52.432;16.914;2022-07-22T11:27:34;100613.42;;;29.94;42.97
31911;BME280;18457;52.432;16.914;2022-07-22T11:30:08;100612.81;;;29.87;43.24
31911;BME280;18457;52.432;16.914;2022-07-22T11:32:43;100610.30;;;29.84;42.73
31911;BME280;18457;52.432;16.914;2022-07-22T11:35:15;100609.67;;;29.85;42.52
31911;BME280;18457;52.432;16.914;2022-07-22T11:37:57;100611.02;;;29.83;42.22
31911;BME280;18457;52.432;16.914;2022-07-22T11:40:39;100603.92;;;29.90;42.03
31911;BME280;18457;52.432;16.914;2022-07-22T11:43:11;100608.04;;;29.99;41.42
31911;BME280;18457;52.432;16.914;2022-07-22T11:48:40;100602.20;;;30.16;41.28
31911;BME280;18457;52.432;16.914;2022-07-22T11:51:14;100605.35;;;29.84;41.96
31911;BME280;18457;52.432;16.914;2022-07-22T11:53:50;100598.34;;;29.87;42.38
31911;BME280;18457;52.432;16.914;2022-07-22T11:56:22;100600.62;;;29.88;42.97
31911;BME280;18457;52.432;16.914;2022-07-22T11:58:53;100602.66;;;29.97;43.03
31911;BME280;18457;52.432;16.914;2022-07-22T12:01:27;100599.70;;;29.62;43.48
31911;BME280;18457;52.432;16.914;2022-07-22T12:04:00;100598.27;;;29.21;43.81
31911;BME280;18457;52.432;16.914;2022-07-22T12:06:35;100598.29;;;29.11;43.99
31911;BME280;18457;52.432;16.914;2022-07-22T12:09:10;100597.52;;;28.87;43.92
31911;BME280;18457;52.432;16.914;2022-07-22T12:11:45;100591.56;;;28.83;44.24
31911;BME280;18457;52.432;16.914;2022-07-22T12:14:21;100591.17;;;28.87;44.17
31911;BME280;18457;52.432;16.914;2022-07-22T12:16:58;100588.66;;;29.11;43.81
31911;BME280;18457;52.432;16.914;2022-07-22T12:19:31;100589.97;;;29.08;43.68
31911;BME280;18457;52.432;16.914;2022-07-22T12:22:05;100589.29;;;29.38;43.26
31911;BME280;18457;52.432;16.914;2022-07-22T12:24:39;100587.67;;;29.65;42.86
31911;BME280;18457;52.432;16.914;2022-07-22T12:27:12;100583.80;;;30.01;42.27
31911;BME280;18457;52.432;16.914;2022-07-22T12:29:46;100585.73;;;29.86;41.72
31911;BME280;18457;52.432;16.914;2022-07-22T12:32:24;100588.48;;;29.68;42.26
31911;BME280;18457;52.432;16.914;2022-07-22T12:34:59;100581.45;;;29.84;41.78
31911;BME280;18457;52.432;16.914;2022-07-22T12:37:33;100575.65;;;30.02;41.37
31911;BME280;18457;52.432;16.914;2022-07-22T12:40:08;100576.61;;;30.24;41.03
31911;BME280;18457;52.432;16.914;2022-07-22T12:42:42;100574.58;;;30.20;40.95
31911;BME280;18457;52.432;16.914;2022-07-22T12:45:16;100574.88;;;30.11;40.70
31911;BME280;18457;52.432;16.914;2022-07-22T12:47:51;100570.42;;;30.24;41.04
31911;BME280;18457;52.432;16.914;2022-07-22T12:50:28;100575.40;;;30.34;40.86
31911;BME280;18457;52.432;16.914;2022-07-22T12:53:03;100574.45;;;30.43;40.70
31911;BME280;18457;52.432;16.914;2022-07-22T12:55:49;100572.30;;;30.18;40.47
31911;BME280;18457;52.432;16.914;2022-07-22T12:58:25;100572.04;;;29.87;41.09
31911;BME280;18457;52.432;16.914;2022-07-22T13:00:59;100565.70;;;30.01;40.86
31911;BME280;18457;52.432;16.914;2022-07-22T13:03:32;100564.72;;;29.89;40.94
31911;BME280;18457;52.432;16.914;2022-07-22T13:06:05;100561.75;;;30.07;40.81
31911;BME280;18457;52.432;16.914;2022-07-22T13:08:42;100563.61;;;29.84;40.82
31911;BME280;18457;52.432;16.914;2022-07-22T13:11:16;100549.36;;;30.19;40.51
31911;BME280;18457;52.432;16.914;2022-07-22T13:13:48;100554.26;;;30.63;40.08
31911;BME280;18457;52.432;16.914;2022-07-22T13:16:20;100559.55;;;30.37;40.11
31911;BME280;18457;52.432;16.914;2022-07-22T13:18:52;100561.15;;;30.45;40.27
31911;BME280;18457;52.432;16.914;2022-07-22T13:21:24;100562.95;;;30.32;40.27
31911;BME280;18457;52.432;16.914;2022-07-22T13:23:57;100563.52;;;30.21;40.14
31911;BME280;18457;52.432;16.914;2022-07-22T13:26:29;100567.27;;;30.07;40.52
31911;BME280;18457;52.432;16.914;2022-07-22T13:29:01;100563.70;;;30.24;40.59
31911;BME280;18457;52.432;16.914;2022-07-22T13:31:33;100561.88;;;30.38;40.38
31911;BME280;18457;52.432;16.914;2022-07-22T13:34:25;100561.71;;;30.59;40.12